createdAt,value
2019-06-10T00:02:05.900Z,79.39
2019-06-10T00:04:41.564Z,79.40
2019-06-10T00:07:15.259Z,79.56
2019-06-10T00:09:51.100Z,79.85
2019-06-10T00:12:23.862Z,80.28
2019-06-10T00:14:57.257Z,80.70
2019-06-10T00:17:31.415Z,81.69
2019-06-10T00:20:08.220Z,82.55
2019-06-10T00:22:41.739Z,82.71
2019-06-10T00:25:15.210Z,83.41
2019-06-10T00:27:51.064Z,83.64
2019-06-10T00:30:23.726Z,83.79
2019-06-10T00:32:58.513Z,84.14
2019-06-10T00:35:32.013Z,85.40
2019-06-10T00:38:14.193Z,85.55
2019-06-10T00:40:46.285Z,86.14
2019-06-10T00:43:21.425Z,86.82
2019-06-10T00:45:54.965Z,86.66
2019-06-10T00:48:29.422Z,86.48
2019-06-10T00:51:04.535Z,86.31
2019-06-10T00:53:38.723Z,86.38
2019-06-10T00:56:14.281Z,87.07
2019-06-10T00:58:47.431Z,87.22
2019-06-10T01:01:21.909Z,87.54
2019-06-10T01:03:55.640Z,87.96
2019-06-10T01:06:31.633Z,88.23
2019-06-10T01:09:06.691Z,88.20
2019-06-10T01:11:41.146Z,88.58
2019-06-10T01:14:15.520Z,88.68
2019-06-10T01:16:50.661Z,89.26
2019-06-10T01:19:24.457Z,90.00
2019-06-10T01:21:57.842Z,90.54
2019-06-10T01:24:31.535Z,90.73
2019-06-10T01:27:05.486Z,91.13
2019-06-10T01:29:38.928Z,91.37
2019-06-10T01:32:14.866Z,91.80
2019-06-10T01:34:47.457Z,92.26
2019-06-10T01:37:21.824Z,92.38
2019-06-10T01:39:55.462Z,92.90
2019-06-10T01:42:30.678Z,92.56
2019-06-10T01:45:06.467Z,92.69
2019-06-10T01:47:41.657Z,92.99
2019-06-10T01:50:17.198Z,93.26
2019-06-10T01:52:51.564Z,93.86
2019-06-10T01:55:25.091Z,94.00
2019-06-10T01:58:00.736Z,94.26
2019-06-10T02:00:35.278Z,94.67
2019-06-10T02:03:11.602Z,94.80
2019-06-10T02:05:43.843Z,94.96
2019-06-10T02:08:17.777Z,94.87
2019-06-10T02:10:51.532Z,94.73
2019-06-10T02:13:32.537Z,95.17
2019-06-10T02:16:06.514Z,94.94
2019-06-10T02:18:42.213Z,94.90
2019-06-10T02:21:17.639Z,94.92
2019-06-10T02:23:52.005Z,94.90
2019-06-10T02:26:25.327Z,94.79
2019-06-10T02:29:00.700Z,94.60
2019-06-10T02:31:37.618Z,94.83
2019-06-10T02:34:12.407Z,94.77
2019-06-10T02:36:44.798Z,94.90
2019-06-10T02:39:25.898Z,94.90
2019-06-10T02:41:55.343Z,95.10
2019-06-10T02:44:33.340Z,95.21
2019-06-10T02:47:03.870Z,95.63
2019-06-10T02:49:55.854Z,95.93
2019-06-10T02:52:22.378Z,95.93
2019-06-10T02:54:53.798Z,95.99
2019-06-10T02:57:34.273Z,96.04
2019-06-10T03:00:06.525Z,96.14
2019-06-10T03:02:37.625Z,96.27
2019-06-10T03:05:14.392Z,96.32
2019-06-10T03:07:46.395Z,96.21
2019-06-10T03:10:22.657Z,96.11
2019-06-10T03:12:54.979Z,96.33
2019-06-10T03:15:28.391Z,96.46
2019-06-10T03:18:02.396Z,96.55
2019-06-10T03:20:35.872Z,96.76
2019-06-10T03:23:09.284Z,97.37
2019-06-10T03:25:42.679Z,97.68
2019-06-10T03:28:17.347Z,98.17
2019-06-10T03:30:55.301Z,98.37
2019-06-10T03:33:31.513Z,98.99
2019-06-10T03:36:03.317Z,99.27
2019-06-10T03:38:37.214Z,99.79
2019-06-10T03:41:12.560Z,100.00
2019-06-10T03:43:45.784Z,100.00
2019-06-10T03:46:19.208Z,100.00
2019-06-10T03:48:52.783Z,100.00
2019-06-10T03:51:27.404Z,100.00
2019-06-10T03:54:02.472Z,100.00
2019-06-10T03:56:35.964Z,99.91
2019-06-10T03:59:09.404Z,100.00
2019-06-10T04:01:42.885Z,100.00
2019-06-10T04:04:17.374Z,100.00
2019-06-10T04:06:53.113Z,99.90
2019-06-10T04:09:27.543Z,99.83
2019-06-10T04:12:02.074Z,99.58
2019-06-10T04:14:35.583Z,99.24
2019-06-10T04:17:08.982Z,98.85
2019-06-10T04:19:42.405Z,98.69
2019-06-10T04:22:15.815Z,98.59
2019-06-10T04:24:49.255Z,98.38
2019-06-10T04:27:24.156Z,97.76
2019-06-10T04:29:57.777Z,98.17
2019-06-10T04:32:32.345Z,98.21
2019-06-10T04:35:06.102Z,98.15
2019-06-10T04:37:39.501Z,98.29
2019-06-10T04:40:13.546Z,98.34
2019-06-10T04:42:46.956Z,98.06
2019-06-10T04:45:22.806Z,98.04
2019-06-10T04:47:55.544Z,97.84
2019-06-10T04:50:39.102Z,97.58
2019-06-10T04:53:04.183Z,93.78
2019-06-10T04:55:37.619Z,91.24
2019-06-10T04:58:12.942Z,87.11
2019-06-10T05:00:46.202Z,83.39
2019-06-10T05:03:20.878Z,85.44
2019-06-10T05:05:54.757Z,89.01
2019-06-10T05:08:29.573Z,83.01
2019-06-10T05:11:03.799Z,87.54
2019-06-10T05:13:37.335Z,84.07
2019-06-10T05:16:12.552Z,84.16
2019-06-10T05:18:45.977Z,83.41
2019-06-10T05:21:19.708Z,86.43
2019-06-10T05:23:53.755Z,88.77
2019-06-10T05:26:28.584Z,90.09
2019-06-10T05:29:03.201Z,89.83
2019-06-10T05:31:36.736Z,89.83
2019-06-10T05:34:10.138Z,89.50
2019-06-10T05:36:43.893Z,90.17
2019-06-10T05:39:17.515Z,90.49
2019-06-10T05:41:53.104Z,90.44
2019-06-10T05:44:28.091Z,89.92
2019-06-10T05:47:03.681Z,90.51
2019-06-10T05:49:36.404Z,90.67
2019-06-10T05:52:09.799Z,91.13
2019-06-10T05:54:43.225Z,90.96
2019-06-10T05:57:16.616Z,90.86
2019-06-10T05:59:52.139Z,91.07
2019-06-10T06:02:25.785Z,91.50
2019-06-10T06:04:59.262Z,91.32
2019-06-10T06:07:35.218Z,91.26
2019-06-10T06:10:08.656Z,90.78
2019-06-10T06:12:42.567Z,91.36
2019-06-10T06:15:16.472Z,91.41
2019-06-10T06:18:04.056Z,92.57
2019-06-10T06:20:25.318Z,92.57
2019-06-10T06:22:58.816Z,92.91
2019-06-10T06:25:38.887Z,92.38
2019-06-10T06:28:07.350Z,92.13
2019-06-10T06:30:42.300Z,90.95
2019-06-10T06:33:15.817Z,90.75
2019-06-10T06:35:49.278Z,90.27
2019-06-10T06:38:22.688Z,89.49
2019-06-10T06:40:56.084Z,89.59
2019-06-10T06:43:32.786Z,90.33
2019-06-10T06:46:04.622Z,89.75
2019-06-10T06:48:40.136Z,88.86
2019-06-10T06:51:13.278Z,88.57
2019-06-10T06:53:51.914Z,89.99
2019-06-10T06:56:23.066Z,84.53
2019-06-10T06:58:56.659Z,76.33
2019-06-10T07:01:32.962Z,72.05
2019-06-10T07:04:05.359Z,69.28
2019-06-10T07:06:43.013Z,71.32
2019-06-10T07:09:17.077Z,72.09
2019-06-10T07:11:52.950Z,69.18
2019-06-10T07:14:29.509Z,66.30
2019-06-10T07:17:03.944Z,70.90
2019-06-10T07:19:39.541Z,75.32
2019-06-10T07:22:16.014Z,74.13
2019-06-10T07:24:47.892Z,74.03
2019-06-10T07:27:22.645Z,75.61
2019-06-10T07:29:56.186Z,76.93
2019-06-10T07:32:29.583Z,78.25
2019-06-10T07:35:03.483Z,79.14
2019-06-10T07:37:38.193Z,79.29
2019-06-10T07:40:13.061Z,79.88
2019-06-10T07:42:46.616Z,79.93
2019-06-10T07:45:22.147Z,79.73
2019-06-10T07:47:55.545Z,79.31
2019-06-10T07:50:29.766Z,78.67
2019-06-10T07:53:03.159Z,77.49
2019-06-10T07:55:37.848Z,77.22
2019-06-10T07:58:12.953Z,76.96
2019-06-10T08:00:48.551Z,76.07
2019-06-10T08:03:22.467Z,77.23
2019-06-10T08:05:56.005Z,76.71
2019-06-10T08:08:29.392Z,74.73
2019-06-10T08:11:03.574Z,74.53
2019-06-10T08:13:37.276Z,74.05
2019-06-10T08:16:13.050Z,75.30
2019-06-10T08:19:12.242Z,75.28
2019-06-10T08:21:22.894Z,75.88
2019-06-10T08:23:56.561Z,75.56
2019-06-10T08:26:32.302Z,75.97
2019-06-10T08:29:05.265Z,76.93
2019-06-10T08:31:38.870Z,78.51
2019-06-10T08:34:13.439Z,77.74
2019-06-10T08:36:50.433Z,77.09
2019-06-10T08:39:23.126Z,78.16
2019-06-10T08:41:56.729Z,78.50
2019-06-10T08:44:32.585Z,79.61
2019-06-10T08:47:05.319Z,79.73
2019-06-10T08:49:39.169Z,79.65
2019-06-10T08:52:12.972Z,79.31
2019-06-10T08:54:50.663Z,78.61
2019-06-10T08:57:23.892Z,77.43
2019-06-10T08:59:56.803Z,77.17
2019-06-10T09:02:31.132Z,76.98
2019-06-10T09:05:08.143Z,77.57
2019-06-10T09:07:45.859Z,77.12
2019-06-10T09:10:18.238Z,76.50
2019-06-10T09:12:54.666Z,76.07
2019-06-10T09:15:27.982Z,77.86
2019-06-10T09:18:02.620Z,78.79
2019-06-10T09:20:36.301Z,79.78
2019-06-10T09:23:21.017Z,77.46
2019-06-10T09:25:48.878Z,78.25
2019-06-10T09:28:20.197Z,77.72
2019-06-10T09:30:58.911Z,75.94
2019-06-10T09:33:28.971Z,74.58
2019-06-10T09:36:03.797Z,74.08
2019-06-10T09:38:37.354Z,72.36
2019-06-10T09:41:13.877Z,72.33
2019-06-10T09:43:50.327Z,71.19
2019-06-10T09:46:23.412Z,72.94
2019-06-10T09:48:58.046Z,70.89
2019-06-10T09:51:32.451Z,74.04
2019-06-10T09:54:06.843Z,72.78
2019-06-10T09:56:43.763Z,73.02
2019-06-10T09:59:15.856Z,72.29
2019-06-10T10:01:56.664Z,70.52
2019-06-10T10:04:24.513Z,72.86
2019-06-10T10:06:58.030Z,73.60
2019-06-10T10:09:36.702Z,71.48
2019-06-10T10:12:07.544Z,70.80
2019-06-10T10:14:44.365Z,70.45
2019-06-10T10:17:16.186Z,69.95
2019-06-10T10:19:53.736Z,66.63
2019-06-10T10:22:24.883Z,65.71
2019-06-10T10:24:58.299Z,64.72
2019-06-10T10:27:32.361Z,64.25
2019-06-10T10:30:07.879Z,65.96
2019-06-10T10:32:44.300Z,62.76
2019-06-10T10:35:16.670Z,65.21
2019-06-10T10:37:53.427Z,63.08
2019-06-10T10:40:25.421Z,63.87
2019-06-10T10:43:16.289Z,67.09
2019-06-10T10:45:34.014Z,65.01
2019-06-10T10:48:07.459Z,65.84
2019-06-10T10:50:40.966Z,64.95
2019-06-10T10:53:14.452Z,63.56
2019-06-10T10:55:49.167Z,63.37
2019-06-10T10:58:23.047Z,64.26
2019-06-10T11:00:57.927Z,63.79
2019-06-10T11:03:33.655Z,64.94
2019-06-10T11:06:06.884Z,65.83
2019-06-10T11:08:42.524Z,65.17
2019-06-10T11:11:15.561Z,67.15
2019-06-10T11:13:56.003Z,67.89
2019-06-10T11:16:25.844Z,67.40
2019-06-10T11:18:59.326Z,68.51
2019-06-10T11:21:33.127Z,68.90
2019-06-10T11:24:06.571Z,69.36
2019-06-10T11:26:40.054Z,69.17
2019-06-10T11:29:13.454Z,70.39
2019-06-10T11:31:46.902Z,69.38
2019-06-10T11:34:20.316Z,66.60
2019-06-10T11:36:56.275Z,61.13
2019-06-10T11:39:28.919Z,61.23
2019-06-10T11:42:03.875Z,58.88
2019-06-10T11:44:37.418Z,59.08
2019-06-10T11:47:13.163Z,59.02
2019-06-10T11:49:46.869Z,58.12
2019-06-10T11:52:20.318Z,56.81
2019-06-10T11:55:05.557Z,56.50
2019-06-10T11:57:28.898Z,55.55
2019-06-10T12:00:13.261Z,57.14
2019-06-10T12:02:37.574Z,57.96
2019-06-10T12:05:13.150Z,60.55
2019-06-10T12:07:46.727Z,59.13
2019-06-10T12:10:20.448Z,57.78
2019-06-10T12:12:58.193Z,59.71
2019-06-10T12:15:29.072Z,59.29
2019-06-10T12:18:07.863Z,58.12
2019-06-10T12:20:37.710Z,56.84
2019-06-10T12:23:12.693Z,57.15
2019-06-10T12:25:47.986Z,59.39
2019-06-10T12:28:21.517Z,58.54
2019-06-10T12:30:58.264Z,56.16
2019-06-10T12:33:33.337Z,56.75
2019-06-10T12:36:07.067Z,58.27
2019-06-10T12:38:43.350Z,58.19
2019-06-10T12:41:16.244Z,59.20
2019-06-10T12:43:49.656Z,58.09
2019-06-10T12:46:23.466Z,58.92
2019-06-10T12:49:00.080Z,57.85
2019-06-10T12:51:32.727Z,57.60
2019-06-10T12:54:06.620Z,56.56
2019-06-10T12:56:42.172Z,57.23
2019-06-10T12:59:15.297Z,58.09
2019-06-10T13:01:48.683Z,56.45
2019-06-10T13:04:22.120Z,57.21
2019-06-10T13:06:57.606Z,58.07
2019-06-10T13:09:32.653Z,57.54
2019-06-10T13:12:06.175Z,56.56
2019-06-10T13:14:39.614Z,56.79
2019-06-10T13:17:13.379Z,57.44
2019-06-10T13:19:47.351Z,57.44
2019-06-10T13:22:22.970Z,56.87
2019-06-10T13:24:56.486Z,57.24
2019-06-10T13:27:31.936Z,57.83
2019-06-10T13:30:08.366Z,59.31
2019-06-10T13:32:43.434Z,59.79
2019-06-10T13:35:17.113Z,59.39
2019-06-10T13:37:52.301Z,60.08
2019-06-10T13:40:25.939Z,60.40
2019-06-10T13:42:59.712Z,60.40
2019-06-10T13:45:33.361Z,60.67
2019-06-10T13:48:09.985Z,60.96
2019-06-10T13:50:42.393Z,60.87
2019-06-10T13:53:15.887Z,62.38
2019-06-10T13:55:52.802Z,65.16
2019-06-10T13:58:25.070Z,66.26
2019-06-10T14:00:59.774Z,67.05
2019-06-10T14:03:33.279Z,68.41
2019-06-10T14:06:23.449Z,70.65
2019-06-10T14:08:43.209Z,71.41
2019-06-10T14:11:18.695Z,71.87
2019-06-10T14:13:52.791Z,73.48
2019-06-10T14:16:26.271Z,73.74
2019-06-10T14:18:59.704Z,76.27
2019-06-10T14:21:33.294Z,73.97
2019-06-10T14:24:08.136Z,78.11
2019-06-10T14:26:44.846Z,76.50
2019-06-10T14:29:17.038Z,77.78
2019-06-10T14:31:53.032Z,77.57
2019-06-10T14:34:25.728Z,79.18
2019-06-10T14:36:59.200Z,78.81
2019-06-10T14:39:32.965Z,79.50
2019-06-10T14:42:06.973Z,78.65
2019-06-10T14:44:42.127Z,78.38
2019-06-10T14:47:16.877Z,79.36
2019-06-10T14:49:52.877Z,80.89
2019-06-10T14:52:25.659Z,79.82
2019-06-10T14:54:59.163Z,80.89
2019-06-10T14:57:33.464Z,79.70
2019-06-10T15:00:08.108Z,80.40
2019-06-10T15:02:42.922Z,81.22
2019-06-10T15:05:17.564Z,81.63
2019-06-10T15:07:52.828Z,82.43
2019-06-10T15:10:26.401Z,82.73
2019-06-10T15:13:02.125Z,82.65
2019-06-10T15:15:35.049Z,83.06
2019-06-10T15:18:09.296Z,81.62
2019-06-10T15:20:43.114Z,81.45
2019-06-10T15:23:18.664Z,82.16
2019-06-10T15:25:53.973Z,81.65
2019-06-10T15:28:27.077Z,81.66
2019-06-10T15:31:03.018Z,80.97
2019-06-10T15:33:36.138Z,81.44
2019-06-10T15:36:09.546Z,81.54
2019-06-10T15:38:44.015Z,82.58
2019-06-10T15:41:19.922Z,82.25
2019-06-10T15:43:53.076Z,82.82
2019-06-10T15:46:26.675Z,83.08
2019-06-10T15:49:02.360Z,83.47
2019-06-10T15:51:35.324Z,83.71
2019-06-10T15:54:08.803Z,83.18
2019-06-10T15:56:51.985Z,81.90
2019-06-10T15:59:18.605Z,81.64
2019-06-10T16:01:53.172Z,80.58
2019-06-10T16:04:29.726Z,80.12
2019-06-10T16:07:03.746Z,78.06
2019-06-10T16:09:37.155Z,79.16
2019-06-10T16:12:13.280Z,77.73
2019-06-10T16:14:45.813Z,76.85
2019-06-10T16:17:19.302Z,77.01
2019-06-10T16:19:53.196Z,76.56
2019-06-10T16:22:26.887Z,78.08
2019-06-10T16:25:00.301Z,79.86
2019-06-10T16:27:47.189Z,80.95
2019-06-10T16:30:12.945Z,80.25
2019-06-10T16:32:46.576Z,80.95
2019-06-10T16:35:21.468Z,79.73
2019-06-10T16:37:56.914Z,80.51
2019-06-10T16:40:32.467Z,81.62
2019-06-10T16:43:05.676Z,82.11
2019-06-10T16:45:39.100Z,81.63
2019-06-10T16:48:13.029Z,81.03
2019-06-10T16:50:47.223Z,81.67
2019-06-10T16:53:26.716Z,82.12
2019-06-10T16:55:56.026Z,82.50
2019-06-10T16:58:30.354Z,82.04
2019-06-10T17:01:04.344Z,81.52
2019-06-10T17:03:37.958Z,81.90
2019-06-10T17:06:13.058Z,81.92
2019-06-10T17:08:46.592Z,81.44
2019-06-10T17:11:21.390Z,81.54
2019-06-10T17:13:55.136Z,81.47
2019-06-10T17:16:29.622Z,81.40
2019-06-10T17:19:03.163Z,81.42
2019-06-10T17:21:37.456Z,80.70
2019-06-10T17:24:14.128Z,81.18
2019-06-10T17:26:48.202Z,82.20
2019-06-10T17:29:24.209Z,82.01
2019-06-10T17:31:57.362Z,82.20
2019-06-10T17:34:31.418Z,82.36
2019-06-10T17:37:06.229Z,81.64
2019-06-10T17:39:42.612Z,80.99
2019-06-10T17:42:15.111Z,81.06
2019-06-10T17:44:48.891Z,81.93
2019-06-10T17:47:25.855Z,83.81
2019-06-10T17:49:58.328Z,85.46
2019-06-10T17:52:33.198Z,86.90
2019-06-10T17:55:07.924Z,88.47
2019-06-10T17:57:42.940Z,87.13
2019-06-10T18:00:17.434Z,86.61
2019-06-10T18:02:53.574Z,87.71
2019-06-10T18:05:27.235Z,88.04
2019-06-10T18:08:02.372Z,87.20
2019-06-10T18:10:36.358Z,88.90
2019-06-10T18:13:16.464Z,88.06
2019-06-10T18:15:46.466Z,88.48
2019-06-10T18:18:20.619Z,89.51
2019-06-10T18:20:55.387Z,88.80
2019-06-10T18:23:30.839Z,88.01
2019-06-10T18:26:05.881Z,87.69
2019-06-10T18:28:59.825Z,87.69
2019-06-10T18:31:18.686Z,88.28
2019-06-10T18:33:53.173Z,88.36
2019-06-10T18:36:28.240Z,89.08
2019-06-10T18:39:03.489Z,89.24
2019-06-10T18:41:41.872Z,89.34
2019-06-10T18:44:22.936Z,89.85
2019-06-10T18:46:54.542Z,89.31
2019-06-10T18:49:30.049Z,89.60
2019-06-10T18:52:05.636Z,89.46
2019-06-10T18:54:43.504Z,89.00
2019-06-10T18:57:18.447Z,89.10
2019-06-10T18:59:53.670Z,89.59
2019-06-10T19:02:30.398Z,89.40
2019-06-10T19:05:07.477Z,89.82
2019-06-10T19:07:46.723Z,90.18
2019-06-10T19:10:23.102Z,89.82
2019-06-10T19:12:59.093Z,89.94
2019-06-10T19:15:35.830Z,89.36
2019-06-10T19:18:15.305Z,89.19
2019-06-10T19:20:52.371Z,88.67
2019-06-10T19:23:27.542Z,88.30
2019-06-10T19:26:03.312Z,88.07
2019-06-10T19:28:41.238Z,86.73
2019-06-10T19:31:17.996Z,85.86
2019-06-10T19:33:54.091Z,85.70
2019-06-10T19:36:29.976Z,84.77
2019-06-10T19:39:07.197Z,85.26
2019-06-10T19:41:47.067Z,85.28
2019-06-10T19:44:23.464Z,85.18
2019-06-10T19:46:58.871Z,85.54
2019-06-10T19:49:35.448Z,86.19
2019-06-10T19:52:12.889Z,86.29
2019-06-10T19:54:49.396Z,86.68
2019-06-10T19:57:25.832Z,86.74
2019-06-10T20:00:11.782Z,87.02
2019-06-10T20:02:39.757Z,86.71
2019-06-10T20:05:16.110Z,86.95
2019-06-10T20:07:53.352Z,86.95
2019-06-10T20:10:29.504Z,86.85
2019-06-10T20:13:05.517Z,87.60
2019-06-10T20:15:42.056Z,87.37
2019-06-10T20:18:18.657Z,87.62
2019-06-10T20:20:54.706Z,87.32
2019-06-10T20:23:30.126Z,87.90
2019-06-10T20:26:05.179Z,87.65
2019-06-10T20:28:41.345Z,87.78
2019-06-10T20:31:16.912Z,87.76
2019-06-10T20:33:52.330Z,87.94
2019-06-10T20:36:27.340Z,87.17
2019-06-10T20:39:01.718Z,87.15
2019-06-10T20:41:36.995Z,86.91
2019-06-10T20:44:13.082Z,88.20
2019-06-10T20:46:48.120Z,88.20
2019-06-10T20:49:22.931Z,88.22
2019-06-10T20:52:08.068Z,88.62
2019-06-10T20:54:32.400Z,89.45
2019-06-10T20:57:06.323Z,90.03
2019-06-10T20:59:42.186Z,90.83
2019-06-10T21:02:16.570Z,90.83
2019-06-10T21:04:50.135Z,93.35
2019-06-10T21:07:24.254Z,93.35
2019-06-10T21:09:59.190Z,93.97
2019-06-10T21:12:32.798Z,93.58
2019-06-10T21:15:12.613Z,93.88
2019-06-10T21:17:47.533Z,95.26
2019-06-10T21:20:22.545Z,95.26
2019-06-10T21:22:56.101Z,95.05
2019-06-10T21:25:29.519Z,95.16
2019-06-10T21:28:03.581Z,95.57
2019-06-10T21:30:42.048Z,95.57
2019-06-10T21:33:12.973Z,95.82
2019-06-10T21:35:47.329Z,95.96
2019-06-10T21:38:23.147Z,95.92
2019-06-10T21:40:58.329Z,95.39
2019-06-10T21:43:33.129Z,95.65
2019-06-10T21:46:06.920Z,95.22
2019-06-10T21:48:42.893Z,94.93
2019-06-10T21:51:15.468Z,94.88
2019-06-10T21:53:48.898Z,95.44
2019-06-10T21:56:22.556Z,95.63
2019-06-10T21:58:57.682Z,96.20
2019-06-10T22:01:32.590Z,96.37
2019-06-10T22:04:06.249Z,96.51
2019-06-10T22:06:39.653Z,96.78
2019-06-10T22:09:13.080Z,97.88
2019-06-10T22:11:46.555Z,98.42
2019-06-10T22:14:22.326Z,98.82
2019-06-10T22:16:56.478Z,99.21
2019-06-10T22:19:32.197Z,99.31
2019-06-10T22:22:05.300Z,99.83
2019-06-10T22:24:38.732Z,100.00
2019-06-10T22:27:12.986Z,100.00
2019-06-10T22:29:47.050Z,100.00
2019-06-10T22:32:20.588Z,100.00
2019-06-10T22:34:55.507Z,100.00
2019-06-10T22:37:29.134Z,100.00
2019-06-10T22:40:03.421Z,100.00
2019-06-10T22:42:36.906Z,100.00
2019-06-10T22:45:13.044Z,100.00
2019-06-10T22:47:45.615Z,100.00
2019-06-10T22:50:19.356Z,100.00
2019-06-10T22:52:54.596Z,100.00
2019-06-10T22:55:27.913Z,100.00
2019-06-10T22:58:03.164Z,100.00
2019-06-10T23:00:36.699Z,100.00
2019-06-10T23:03:10.108Z,100.00
2019-06-10T23:05:44.521Z,100.00
2019-06-10T23:08:17.933Z,100.00
2019-06-10T23:10:53.774Z,100.00
2019-06-10T23:13:26.489Z,100.00
2019-06-10T23:16:02.428Z,100.00
2019-06-10T23:18:35.045Z,100.00
2019-06-10T23:21:08.469Z,100.00
2019-06-10T23:23:43.127Z,100.00
2019-06-10T23:26:16.774Z,100.00
2019-06-10T23:28:54.038Z,100.00
2019-06-10T23:31:26.860Z,100.00
2019-06-10T23:34:02.243Z,100.00
2019-06-10T23:36:35.410Z,100.00
2019-06-10T23:39:08.820Z,100.00
2019-06-10T23:41:43.361Z,100.00
2019-06-10T23:44:16.923Z,100.00
2019-06-10T23:46:51.109Z,100.00
2019-06-10T23:49:24.503Z,100.00
2019-06-10T23:51:59.147Z,100.00
2019-06-10T23:54:33.193Z,100.00
2019-06-10T23:57:06.617Z,100.00
2019-06-10T23:59:42.626Z,100.00
